sensor_id;sensor_type;location;lat;lon;timestamp;P1;durP1;ratioP1;P2;durP2;ratioP2
13309;SDS011;6723;48.256;16.402;2023-07-02T15:23:43;2.00;;;1.80;;
13309;SDS011;6723;48.256;16.402;2023-07-02T15:28:21;3.50;;;2.50;;
13309;SDS011;6723;48.256;16.402;2023-07-02T15:30:51;5.03;;;2.30;;
13309;SDS011;6723;48.256;16.402;2023-07-02T15:33:18;2.40;;;2.20;;
13309;SDS011;6723;48.256;16.402;2023-07-02T15:35:44;3.73;;;2.50;;
13309;SDS011;6723;48.256;16.402;2023-07-02T15:38:10;4.17;;;2.27;;
13309;SDS011;6723;48.256;16.402;2023-07-02T15:40:36;3.47;;;2.33;;
13309;SDS011;6723;48.256;16.402;2023-07-02T15:43:02;2.57;;;2.10;;
13309;SDS011;6723;48.256;16.402;2023-07-02T15:45:27;2.20;;;2.00;;
13309;SDS011;6723;48.256;16.402;2023-07-02T15:47:54;3.23;;;2.30;;
13309;SDS011;6723;48.256;16.402;2023-07-02T15:50:21;4.47;;;2.10;;
13309;SDS011;6723;48.256;16.402;2023-07-02T15:52:50;2.67;;;2.10;;
13309;SDS011;6723;48.256;16.402;2023-07-02T15:55:17;2.77;;;2.17;;
13309;SDS011;6723;48.256;16.402;2023-07-02T15:57:43;2.53;;;2.00;;
13309;SDS011;6723;48.256;16.402;2023-07-02T16:00:10;2.90;;;2.33;;
13309;SDS011;6723;48.256;16.402;2023-07-02T16:02:36;4.03;;;2.33;;
13309;SDS011;6723;48.256;16.402;2023-07-02T16:05:02;2.50;;;2.00;;
13309;SDS011;6723;48.256;16.402;2023-07-02T16:07:28;4.53;;;2.40;;
13309;SDS011;6723;48.256;16.402;2023-07-02T16:09:54;3.67;;;2.30;;
13309;SDS011;6723;48.256;16.402;2023-07-02T16:12:20;3.33;;;2.57;;
13309;SDS011;6723;48.256;16.402;2023-07-02T16:14:46;4.43;;;2.60;;
13309;SDS011;6723;48.256;16.402;2023-07-02T16:17:11;3.33;;;2.47;;
13309;SDS011;6723;48.256;16.402;2023-07-02T16:19:37;4.53;;;2.90;;
13309;SDS011;6723;48.256;16.402;2023-07-02T16:22:03;4.97;;;2.80;;
13309;SDS011;6723;48.256;16.402;2023-07-02T16:24:31;3.47;;;2.33;;
13309;SDS011;6723;48.256;16.402;2023-07-02T16:26:58;2.47;;;2.23;;
13309;SDS011;6723;48.256;16.402;2023-07-02T16:29:26;5.00;;;2.63;;
13309;SDS011;6723;48.256;16.402;2023-07-02T16:31:59;4.03;;;2.70;;
13309;SDS011;6723;48.256;16.402;2023-07-02T16:34:25;5.33;;;3.03;;
13309;SDS011;6723;48.256;16.402;2023-07-02T16:36:54;4.60;;;3.20;;
13309;SDS011;6723;48.256;16.402;2023-07-02T16:39:20;3.03;;;2.70;;
13309;SDS011;6723;48.256;16.402;2023-07-02T16:41:47;3.97;;;3.10;;
13309;SDS011;6723;48.256;16.402;2023-07-02T16:44:14;3.53;;;3.20;;
13309;SDS011;6723;48.256;16.402;2023-07-02T16:46:45;8.90;;;4.43;;
13309;SDS011;6723;48.256;16.402;2023-07-02T16:49:14;5.43;;;3.77;;
13309;SDS011;6723;48.256;16.402;2023-07-02T16:51:41;14.47;;;5.57;;
13309;SDS011;6723;48.256;16.402;2023-07-02T16:54:10;22.93;;;9.80;;
13309;SDS011;6723;48.256;16.402;2023-07-02T16:56:59;4.83;;;3.30;;
13309;SDS011;6723;48.256;16.402;2023-07-02T16:59:27;6.77;;;3.53;;
13309;SDS011;6723;48.256;16.402;2023-07-02T17:01:56;6.13;;;3.30;;
13309;SDS011;6723;48.256;16.402;2023-07-02T17:04:24;4.57;;;3.53;;
13309;SDS011;6723;48.256;16.402;2023-07-02T17:06:52;5.83;;;3.80;;
13309;SDS011;6723;48.256;16.402;2023-07-02T17:11:49;3.73;;;2.70;;
13309;SDS011;6723;48.256;16.402;2023-07-02T17:14:19;5.60;;;3.20;;
13309;SDS011;6723;48.256;16.402;2023-07-02T17:16:51;4.73;;;3.37;;
13309;SDS011;6723;48.256;16.402;2023-07-02T17:19:19;5.17;;;3.33;;
13309;SDS011;6723;48.256;16.402;2023-07-02T17:21:51;4.73;;;3.63;;
13309;SDS011;6723;48.256;16.402;2023-07-02T17:24:25;6.33;;;3.63;;
13309;SDS011;6723;48.256;16.402;2023-07-02T17:26:56;4.73;;;3.70;;
13309;SDS011;6723;48.256;16.402;2023-07-02T17:29:22;4.93;;;3.63;;
13309;SDS011;6723;48.256;16.402;2023-07-02T17:31:50;6.73;;;3.90;;
13309;SDS011;6723;48.256;16.402;2023-07-02T17:34:18;4.77;;;3.60;;
13309;SDS011;6723;48.256;16.402;2023-07-02T17:36:55;4.63;;;3.63;;
13309;SDS011;6723;48.256;16.402;2023-07-02T17:39:22;7.57;;;3.90;;
13309;SDS011;6723;48.256;16.402;2023-07-02T17:41:50;3.83;;;3.37;;
13309;SDS011;6723;48.256;16.402;2023-07-02T17:44:18;6.83;;;3.53;;
13309;SDS011;6723;48.256;16.402;2023-07-02T17:49:28;5.77;;;3.93;;
13309;SDS011;6723;48.256;16.402;2023-07-02T17:51:56;6.10;;;3.77;;
13309;SDS011;6723;48.256;16.402;2023-07-02T17:54:22;3.87;;;3.47;;
13309;SDS011;6723;48.256;16.402;2023-07-02T17:56:51;6.03;;;3.90;;
13309;SDS011;6723;48.256;16.402;2023-07-02T17:59:19;5.13;;;4.10;;
13309;SDS011;6723;48.256;16.402;2023-07-02T18:01:50;8.33;;;4.00;;
13309;SDS011;6723;48.256;16.402;2023-07-02T18:04:16;4.97;;;3.70;;
13309;SDS011;6723;48.256;16.402;2023-07-02T18:06:43;6.03;;;4.10;;
13309;SDS011;6723;48.256;16.402;2023-07-02T18:09:14;5.90;;;4.17;;
13309;SDS011;6723;48.256;16.402;2023-07-02T18:11:41;5.17;;;4.20;;
13309;SDS011;6723;48.256;16.402;2023-07-02T18:14:07;5.33;;;3.80;;
13309;SDS011;6723;48.256;16.402;2023-07-02T18:16:33;5.17;;;3.90;;
13309;SDS011;6723;48.256;16.402;2023-07-02T18:19:00;7.07;;;4.30;;
13309;SDS011;6723;48.256;16.402;2023-07-02T18:21:26;4.70;;;3.97;;
13309;SDS011;6723;48.256;16.402;2023-07-02T18:23:52;7.80;;;4.10;;
13309;SDS011;6723;48.256;16.402;2023-07-02T18:26:17;4.87;;;4.03;;
13309;SDS011;6723;48.256;16.402;2023-07-02T18:28:51;6.10;;;4.50;;
13309;SDS011;6723;48.256;16.402;2023-07-02T18:31:17;6.27;;;4.40;;
13309;SDS011;6723;48.256;16.402;2023-07-02T18:33:43;6.83;;;4.17;;
13309;SDS011;6723;48.256;16.402;2023-07-02T18:36:10;4.87;;;4.17;;
13309;SDS011;6723;48.256;16.402;2023-07-02T18:38:37;6.33;;;4.43;;
13309;SDS011;6723;48.256;16.402;2023-07-02T18:41:03;6.00;;;4.60;;
13309;SDS011;6723;48.256;16.402;2023-07-02T18:43:32;6.03;;;4.47;;
13309;SDS011;6723;48.256;16.402;2023-07-02T18:45:59;6.33;;;4.10;;
13309;SDS011;6723;48.256;16.402;2023-07-02T18:48:25;5.80;;;4.50;;
13309;SDS011;6723;48.256;16.402;2023-07-02T18:50:52;5.07;;;4.30;;
13309;SDS011;6723;48.256;16.402;2023-07-02T18:53:18;8.67;;;4.67;;
13309;SDS011;6723;48.256;16.402;2023-07-02T18:55:58;5.70;;;4.23;;
13309;SDS011;6723;48.256;16.402;2023-07-02T18:58:29;6.30;;;4.77;;
13309;SDS011;6723;48.256;16.402;2023-07-02T19:00:56;6.13;;;4.73;;
13309;SDS011;6723;48.256;16.402;2023-07-02T19:03:22;8.63;;;4.53;;
13309;SDS011;6723;48.256;16.402;2023-07-02T19:05:49;6.17;;;4.70;;
13309;SDS011;6723;48.256;16.402;2023-07-02T19:08:15;5.77;;;4.67;;
13309;SDS011;6723;48.256;16.402;2023-07-02T19:10:43;9.90;;;5.60;;
13309;SDS011;6723;48.256;16.402;2023-07-02T19:13:10;7.83;;;5.10;;
13309;SDS011;6723;48.256;16.402;2023-07-02T19:15:37;8.40;;;5.00;;
13309;SDS011;6723;48.256;16.402;2023-07-02T19:18:04;6.00;;;4.80;;
13309;SDS011;6723;48.256;16.402;2023-07-02T19:20:30;7.90;;;4.73;;
13309;SDS011;6723;48.256;16.402;2023-07-02T19:22:57;6.50;;;4.77;;
13309;SDS011;6723;48.256;16.402;2023-07-02T19:27:55;5.70;;;4.80;;
13309;SDS011;6723;48.256;16.402;2023-07-02T19:30:21;6.07;;;5.07;;
13309;SDS011;6723;48.256;16.402;2023-07-02T19:32:47;7.47;;;5.57;;
13309;SDS011;6723;48.256;16.402;2023-07-02T19:35:13;6.47;;;5.10;;
13309;SDS011;6723;48.256;16.402;2023-07-02T19:37:40;6.33;;;5.60;;
13309;SDS011;6723;48.256;16.402;2023-07-02T19:40:06;6.43;;;5.07;;
13309;SDS011;6723;48.256;16.402;2023-07-02T19:42:32;6.47;;;5.13;;
13309;SDS011;6723;48.256;16.402;2023-07-02T19:44:59;5.40;;;4.87;;
13309;SDS011;6723;48.256;16.402;2023-07-02T19:47:26;9.33;;;5.37;;
13309;SDS011;6723;48.256;16.402;2023-07-02T19:49:53;10.83;;;5.53;;
13309;SDS011;6723;48.256;16.402;2023-07-02T19:52:22;8.30;;;4.90;;
13309;SDS011;6723;48.256;16.402;2023-07-02T19:54:58;6.33;;;5.30;;
13309;SDS011;6723;48.256;16.402;2023-07-02T19:57:28;7.10;;;5.10;;
13309;SDS011;6723;48.256;16.402;2023-07-02T19:59:54;6.93;;;5.37;;
13309;SDS011;6723;48.256;16.402;2023-07-02T20:02:20;6.20;;;5.17;;
13309;SDS011;6723;48.256;16.402;2023-07-02T20:04:55;8.77;;;5.27;;
13309;SDS011;6723;48.256;16.402;2023-07-02T20:07:22;6.37;;;5.50;;
13309;SDS011;6723;48.256;16.402;2023-07-02T20:09:49;7.93;;;5.50;;
13309;SDS011;6723;48.256;16.402;2023-07-02T20:12:15;8.07;;;5.40;;
13309;SDS011;6723;48.256;16.402;2023-07-02T20:14:41;9.33;;;5.90;;
13309;SDS011;6723;48.256;16.402;2023-07-02T20:17:10;7.27;;;5.67;;
13309;SDS011;6723;48.256;16.402;2023-07-02T20:19:38;6.53;;;5.43;;
13309;SDS011;6723;48.256;16.402;2023-07-02T20:22:04;8.70;;;5.50;;
13309;SDS011;6723;48.256;16.402;2023-07-02T20:24:34;6.73;;;5.40;;
13309;SDS011;6723;48.256;16.402;2023-07-02T20:27:00;6.57;;;5.43;;
13309;SDS011;6723;48.256;16.402;2023-07-02T20:29:26;6.30;;;5.27;;
13309;SDS011;6723;48.256;16.402;2023-07-02T20:31:53;8.50;;;5.90;;
13309;SDS011;6723;48.256;16.402;2023-07-02T20:34:19;6.70;;;5.20;;
13309;SDS011;6723;48.256;16.402;2023-07-02T20:36:48;8.57;;;5.80;;
13309;SDS011;6723;48.256;16.402;2023-07-02T20:39:19;7.63;;;5.77;;
13309;SDS011;6723;48.256;16.402;2023-07-02T20:41:46;7.57;;;5.87;;
13309;SDS011;6723;48.256;16.402;2023-07-02T20:44:13;7.00;;;5.70;;
13309;SDS011;6723;48.256;16.402;2023-07-02T20:46:41;8.47;;;5.73;;
13309;SDS011;6723;48.256;16.402;2023-07-02T20:49:20;7.70;;;5.70;;
13309;SDS011;6723;48.256;16.402;2023-07-02T20:51:47;7.63;;;6.03;;
13309;SDS011;6723;48.256;16.402;2023-07-02T20:54:14;8.70;;;5.53;;
13309;SDS011;6723;48.256;16.402;2023-07-02T20:56:42;7.67;;;6.10;;
13309;SDS011;6723;48.256;16.402;2023-07-02T20:59:08;8.33;;;5.60;;
13309;SDS011;6723;48.256;16.402;2023-07-02T21:01:34;7.13;;;6.30;;
13309;SDS011;6723;48.256;16.402;2023-07-02T21:04:01;8.00;;;6.03;;
13309;SDS011;6723;48.256;16.402;2023-07-02T21:06:35;11.07;;;6.17;;
13309;SDS011;6723;48.256;16.402;2023-07-02T21:09:03;7.67;;;5.90;;
13309;SDS011;6723;48.256;16.402;2023-07-02T21:11:31;7.57;;;6.17;;
13309;SDS011;6723;48.256;16.402;2023-07-02T21:13:58;6.93;;;6.07;;
13309;SDS011;6723;48.256;16.402;2023-07-02T21:16:25;10.90;;;6.50;;
13309;SDS011;6723;48.256;16.402;2023-07-02T21:18:51;8.70;;;6.47;;
13309;SDS011;6723;48.256;16.402;2023-07-02T21:21:17;10.47;;;6.33;;
13309;SDS011;6723;48.256;16.402;2023-07-02T21:23:42;7.63;;;6.20;;
13309;SDS011;6723;48.256;16.402;2023-07-02T21:26:08;8.70;;;6.43;;
13309;SDS011;6723;48.256;16.402;2023-07-02T21:28:36;11.03;;;7.20;;
13309;SDS011;6723;48.256;16.402;2023-07-02T21:31:03;7.97;;;6.10;;
13309;SDS011;6723;48.256;16.402;2023-07-02T21:33:29;8.43;;;6.50;;
13309;SDS011;6723;48.256;16.402;2023-07-02T21:36:04;9.07;;;6.50;;
13309;SDS011;6723;48.256;16.402;2023-07-02T21:38:35;9.07;;;7.17;;
13309;SDS011;6723;48.256;16.402;2023-07-02T21:41:05;8.73;;;6.67;;
13309;SDS011;6723;48.256;16.402;2023-07-02T21:43:31;7.73;;;6.53;;
13309;SDS011;6723;48.256;16.402;2023-07-02T21:45:58;9.50;;;6.37;;
13309;SDS011;6723;48.256;16.402;2023-07-02T21:48:26;8.40;;;6.23;;
13309;SDS011;6723;48.256;16.402;2023-07-02T21:50:53;16.23;;;7.97;;
13309;SDS011;6723;48.256;16.402;2023-07-02T21:53:19;23.30;;;8.47;;
13309;SDS011;6723;48.256;16.402;2023-07-02T21:55:46;51.23;;;10.83;;
13309;SDS011;6723;48.256;16.402;2023-07-02T21:58:13;37.97;;;10.10;;
13309;SDS011;6723;48.256;16.402;2023-07-02T22:00:39;40.13;;;9.67;;
13309;SDS011;6723;48.256;16.402;2023-07-02T22:03:05;31.07;;;9.20;;
13309;SDS011;6723;48.256;16.402;2023-07-02T22:05:30;23.73;;;8.37;;
13309;SDS011;6723;48.256;16.402;2023-07-02T22:07:57;14.77;;;7.37;;
13309;SDS011;6723;48.256;16.402;2023-07-02T22:10:23;20.20;;;9.47;;
13309;SDS011;6723;48.256;16.402;2023-07-02T22:12:48;12.67;;;7.67;;
13309;SDS011;6723;48.256;16.402;2023-07-02T22:15:15;11.87;;;7.57;;
13309;SDS011;6723;48.256;16.402;2023-07-02T22:17:42;11.50;;;7.50;;
13309;SDS011;6723;48.256;16.402;2023-07-02T22:20:08;16.07;;;8.60;;
13309;SDS011;6723;48.256;16.402;2023-07-02T22:22:42;15.70;;;8.30;;
13309;SDS011;6723;48.256;16.402;2023-07-02T22:25:08;13.33;;;7.87;;
13309;SDS011;6723;48.256;16.402;2023-07-02T22:27:36;11.57;;;8.40;;
13309;SDS011;6723;48.256;16.402;2023-07-02T22:30:03;11.27;;;8.23;;
13309;SDS011;6723;48.256;16.402;2023-07-02T22:32:33;12.53;;;7.33;;
13309;SDS011;6723;48.256;16.402;2023-07-02T22:34:59;14.67;;;7.63;;
13309;SDS011;6723;48.256;16.402;2023-07-02T22:57:06;9.47;;;7.03;;
13309;SDS011;6723;48.256;16.402;2023-07-02T22:59:32;10.27;;;7.60;;
13309;SDS011;6723;48.256;16.402;2023-07-02T23:01:57;13.33;;;7.73;;
13309;SDS011;6723;48.256;16.402;2023-07-02T23:04:23;10.03;;;7.53;;
13309;SDS011;6723;48.256;16.402;2023-07-02T23:06:49;10.17;;;7.63;;
13309;SDS011;6723;48.256;16.402;2023-07-02T23:09:17;9.87;;;7.00;;
13309;SDS011;6723;48.256;16.402;2023-07-02T23:11:44;10.23;;;7.43;;
13309;SDS011;6723;48.256;16.402;2023-07-02T23:14:11;12.47;;;7.73;;
13309;SDS011;6723;48.256;16.402;2023-07-02T23:16:37;10.50;;;7.43;;
13309;SDS011;6723;48.256;16.402;2023-07-02T23:19:03;11.07;;;7.37;;
13309;SDS011;6723;48.256;16.402;2023-07-02T23:21:29;9.40;;;7.33;;
13309;SDS011;6723;48.256;16.402;2023-07-02T23:23:55;10.07;;;7.87;;
13309;SDS011;6723;48.256;16.402;2023-07-02T23:26:23;10.23;;;7.63;;
13309;SDS011;6723;48.256;16.402;2023-07-02T23:28:51;12.47;;;7.50;;
13309;SDS011;6723;48.256;16.402;2023-07-02T23:31:21;10.90;;;7.67;;
13309;SDS011;6723;48.256;16.402;2023-07-02T23:33:51;9.77;;;7.50;;
13309;SDS011;6723;48.256;16.402;2023-07-02T23:36:18;11.00;;;8.03;;
13309;SDS011;6723;48.256;16.402;2023-07-02T23:38:49;10.90;;;7.63;;
13309;SDS011;6723;48.256;16.402;2023-07-02T23:41:16;10.10;;;7.87;;
13309;SDS011;6723;48.256;16.402;2023-07-02T23:43:43;13.37;;;7.63;;
13309;SDS011;6723;48.256;16.402;2023-07-02T23:46:09;10.70;;;7.47;;
13309;SDS011;6723;48.256;16.402;2023-07-02T23:48:34;11.03;;;7.83;;
13309;SDS011;6723;48.256;16.402;2023-07-02T23:51:01;9.90;;;7.80;;
13309;SDS011;6723;48.256;16.402;2023-07-02T23:53:27;10.33;;;7.20;;
13309;SDS011;6723;48.256;16.402;2023-07-02T23:55:52;11.23;;;7.43;;
13309;SDS011;6723;48.256;16.402;2023-07-02T23:58:18;10.93;;;7.90;;
